Pagina principale
METAR-TAF:

METAR-TAF

Aeroporti :

Aeroporto di Reggio Calabria

Reggio Calabria, Italia

latitudine: 38-04N, longitudine: 015-39E, altezza: 11 m

Osservazione

Il bollettino è stato emesso 19 minuti fa, alle 23:20 UTC
Vento 5 kt da nord
Temperature 21°C
Umidità 78%
Pressione 1015 hPa
Visibilità 10 km o più

METAR: LICR 142320Z AUTO 36005KT 9999 FEW036/// BKN068/// 21/17 Q1015

Ora: 01:39 (23:39 UTC)

Previsione

Il bollettino è stato emesso 6 ore e 39 minuti fa, alle 17:00 UTC
Previsione valida dal 14 alle 18 UTC al 15 alle 18 UTC
Vento 10 kt da sud/sud-ovest
Visibilità 10 km o più
Nubi sparse ad un'altezza di 4000 ft
Evoluzione graduale
dal 14 alle 18 UTC al 14 alle 20 UTC
Vento 8 kt da nord
Evoluzione graduale
dal 15 alle 10 UTC al 15 alle 12 UTC
Vento 10 kt da sud/sud-ovest

TAF: LICR 141700Z 1418/1518 20010KT 9999 SCT040 BECMG 1418/1420 35008KT BECMG 1510/1512 20010KT

Osservazioni e previsioni meteorologiche di più di 4000 aeroporti (messaggi METAR e TAF).

Le stazioni disponibili sono rappresentate dai dischi gialli e rossi sulla carta.

Puntare il mouse per vedere il nome della stazione.

Clicca sopra per visualizzare le osservazioni e previsioni meteorologiche.

Per cambiare la mappa : fare clic sui pulsanti verdi con una croce nera per ingrandire, il pulsante verde con un trattino per diminuire, o sulla freccia verde per le mappe adiacenti.


METAR-TAF: